Airfield :
LOGIN :

Register | Disclaimer

   EN    FR    IT 

 










Legend :    VFR   Marginal VFR   IFR   Intensive IFR   Very Intensive IFR
Visi :
Ceiling :
>= 8 km
>= 3000ft
5 to 8 km
1000 to 3000 ft
1500m to 5 km
500 to 1000 ft
800 to 1500m
200 to 500 ft
< 800m
< 200 ft
Symbols :   Thunderstorms  Fog  Heavy snow  Heavy precipitations  Wind > 20 kt
SIGMETs :     Misc.  Thunderstorms  Icing  Turbulence  Mountain Waves  Volcanic Ashes






- Airport Elevation : 233 ft
- IATA code : REU


LERS - Reus Tarragona

CURRENT METAR :
  • 062100Z 23002KT 9999 FEW020 23/21 Q1017

EXPIRED METARs :
  • 062030Z 22003KT 9999 FEW020 24/21 Q1017
  • 062000Z 21004KT 9999 FEW020 24/21 Q1017
  • 061930Z 21004KT 180V240 9999 FEW020 25/21 Q1016
  • 061900Z 21005KT 170V240 9999 FEW030 26/22 Q1016
  • 061830Z 20006KT 160V230 CAVOK 27/22 Q1016
  • 061800Z 19006KT 150V230 CAVOK 27/21 Q1016

TAF TAF LERS
Valid from the 06 at 21:00 until the 07 at 21:00 UTC


062000Z 0621/0721 VRB04KT 9999 FEW020 TX31/0712Z TN20/0705Z
BECMG 0708/0710 20010KT
BECMG 0718/0720 VRB03KT



MET'MAP, your aeronautical weather chart ! - Copyright ORBIFLY December 2007 - Disclaimer

ORBIFLY MET'MAP TEAM :

Programming & Development : Alexandra Zaïnal
Concept & original design : Baudouin d'Aumeries
Assistance for programming : Marc-Olivier Méhu
Technical & hardware support : Manuel Goepfert

Contact : metmap@orbifly.com




SOURCES & CREDITS :

   NOAA